Aeroporto :
LOGIN :

Iscrizione | Disclaimer

   EN    FR    IT 

 










Sommario :    VFR   VFR Marginale   IFR   IFR Intensivo   IFR Molto Intensivo
Visibilità : 
Base nubi : 
>= 8 km
>= 3000ft
5 / 8 km
1000 / 3000 ft
1500m / 5 km
500 / 1000 ft
800 / 1500m
200 / 500 ft
< 800m
< 200 ft
Simboli :   Temporali  Nebbia  Neve Forte  Precipitazioni Forti  Vento > 20 kt
SIGMETs :   Varie  Temporali  Ghiacco  Turbolenza  Onda orograficha  Ceneri Vulcaniche







- Altitudine del aeroporto : 433 ft
- Codice IATA : CCF
- Carte del aeroporto


LFMK - Carcassonne

ULTIMO METAR :
  • 230130Z AUTO 17004KT 140V210 CAVOK 16/12 Q1021

METARs OBSOLETI :
  • 230100Z AUTO 17004KT 130V190 CAVOK 16/12 Q1021
  • 230030Z AUTO VRB03KT CAVOK 16/12 Q1021
  • 230000Z AUTO 00000KT CAVOK 16/12 Q1021
  • 222330Z AUTO VRB02KT CAVOK 16/12 Q1021
  • 222300Z AUTO 19004KT 150V230 CAVOK 17/12 Q1021

TAF TAF LFMK
Valido dal 22 a 15 ore il 23 a 15 ore UTC


221400Z 2215/2315 29010KT CAVOK
BECMG 2217/2220 VRB05KT
BECMG 2311/2313 12010KT
Nessun NOTAM noto per questo aeroporto.



MetMap, La meteo Aeronautica in un colpo d'occhio ! - Copyright ORBIFLY Dicembre 2007 - Disclaimer

ORBIFLY MET'MAP TEAM :

Programmazione e sviluppo : Alexandra Zaïnal
Concezione e sviluppo : Baudouin d'Aumeries
Co-Programmazione e sviluppo : Marc-Olivier Méhu
Supporto tecnico e logistico : Manuel Goepfert
Aiuto per la traduzione : Arnaldo La Scala

Contatto : metmap@orbifly.com




FONTI E CREDITI :

   NOAA